Bookmark and Share
Track history (hours):
 

Ag Nektarios Aiginas

Last reported at 2014-Apr-17 15:33 UTC. Time now 2014-Apr-17 15:36 UTC.
Position N 37°54' E 023°34'.

Length 75 m; draft 2.7 m.

Type: Passenger vessel. MMSI: 237021400.

NotesDate/timePositionNaut miles runAvg speedWind from/ knotsBaromVisibWave heightAir tempDewpointWater temp
2014-Apr-17 15:33N 37°54' E 023°34'6 3.0
2014-Apr-17 13:33N 37°49' E 023°29'1110.8
2014-Apr-17 12:34N 37°57' E 023°39'5 5.0
2014-Apr-17 11:33N 37°53' E 023°34'1110.6
2014-Apr-17 10:33N 37°45' E 023°25'5 5.3
2014-Apr-17 09:33N 37°49' E 023°30'1010.6
2014-Apr-17 08:33N 37°57' E 023°39'6 5.6
2014-Apr-17 07:33N 37°52' E 023°34'10 7.9
2014-Apr-17 06:16N 37°45' E 023°25'7 9.7
2014-Apr-17 05:33N 37°50' E 023°32'9 8.9
2014-Apr-17 04:33N 37°57' E 023°38'0 0.0
2014-Apr-17 03:33N 37°57' E 023°38'0 0.0
2014-Apr-16 17:14N 37°57' E 023°38'7 9.7
2014-Apr-16 16:33N 37°50' E 023°37'1010.2
2014-Apr-16 15:33N 37°46' E 023°25'3 3.1
2014-Apr-16 14:33N 37°47' E 023°29'1110.7
2014-Apr-16 13:33N 37°56' E 023°36'1 0.6
2014-Apr-16 12:33N 37°56' E 023°37'1312.6
2014-Apr-16 11:33N 37°47' E 023°26'1 1.1
2014-Apr-16 10:33N 37°47' E 023°27'1212.0
2014-Apr-16 09:33N 37°56' E 023°37'1 1.1
2014-Apr-16 08:33N 37°57' E 023°38'1211.7
2014-Apr-16 07:33N 37°48' E 023°28'1 0.9
2014-Apr-16 06:27N 37°48' E 023°27'1112.6
2014-Apr-16 05:33N 37°56' E 023°37'2 1.6
2014-Apr-16 04:33N 37°57' E 023°38'2 0.2
2014-Apr-15 16:33N 37°55' E 023°36'1312.6
2014-Apr-15 15:33N 37°46' E 023°25'1 0.8
2014-Apr-15 14:31N 37°47' E 023°26'12 6.2
2014-Apr-15 12:34N 37°56' E 023°36'0 0.5
2014-Apr-15 11:34N 37°56' E 023°37'1312.9
2014-Apr-15 10:33N 37°46' E 023°25'0 0.4
2014-Apr-15 09:34N 37°46' E 023°25'1312.7
2014-Apr-15 08:34N 37°55' E 023°36'2 2.1
2014-Apr-15 07:34N 37°57' E 023°38'1212.4
2014-Apr-15 06:34N 37°48' E 023°27'11 0.8
2014-Apr-14 15:33N 37°56' E 023°37'1313.1
2014-Apr-14 14:33N 37°47' E 023°26'1 0.7
2014-Apr-14 13:33N 37°46' E 023°25'13 6.3
2014-Apr-14 11:32N 37°55' E 023°36'1313.0
2014-Apr-14 10:33N 37°46' E 023°25'12 6.2
2014-Apr-14 08:33N 37°55' E 023°36'2 2.3
2014-Apr-14 07:32N 37°57' E 023°38'1212.3
2014-Apr-14 06:33N 37°48' E 023°28'12 0.9
2014-Apr-13 17:10N 37°57' E 023°38'4 6.6
2014-Apr-13 16:33N 37°54' E 023°35'9 4.1
2014-Apr-13 14:24N 37°47' E 023°27'1112.5
2014-Apr-13 13:33N 37°55' E 023°36'2 2.3
2014-Apr-13 12:33N 37°53' E 023°34'9 4.2
2014-Apr-13 10:26N 37°47' E 023°26'1112.8
2014-Apr-13 09:33N 37°55' E 023°36'2 1.9
2014-Apr-13 08:28N 37°57' E 023°38'1112.5
2014-Apr-13 07:33N 37°48' E 023°29'0 0.3
2014-Apr-13 06:21N 37°48' E 023°28'1012.9
2014-Apr-13 05:33N 37°56' E 023°37'0 0.0
2014-Apr-12 16:33N 37°56' E 023°37'1312.9
2014-Apr-12 15:33N 37°46' E 023°25'0 0.5
2014-Apr-12 14:33N 37°47' E 023°25'1312.5
2014-Apr-12 13:33N 37°56' E 023°37'1 0.9
2014-Apr-12 12:33N 37°56' E 023°37'1312.9
2014-Apr-12 11:33N 37°47' E 023°26'2 1.8
2014-Apr-12 10:16N 37°48' E 023°29'912.6
2014-Apr-12 09:33N 37°55' E 023°36'2 2.1
2014-Apr-12 08:33N 37°57' E 023°38'1312.6
2014-Apr-12 07:32N 37°47' E 023°27'1 0.9
2014-Apr-12 06:27N 37°48' E 023°28'1112.6
2014-Apr-12 05:33N 37°56' E 023°38'0 0.0
2014-Apr-11 16:33N 37°56' E 023°37'1312.9
2014-Apr-11 15:33N 37°47' E 023°26'1 1.5
2014-Apr-11 14:32N 37°48' E 023°27'1212.1
2014-Apr-11 13:32N 37°56' E 023°38'1 0.9
2014-Apr-11 12:33N 37°56' E 023°37'1312.8
2014-Apr-11 11:33N 37°46' E 023°25'1 1.1
2014-Apr-11 10:31N 37°47' E 023°26'1212.5
2014-Apr-11 09:33N 37°56' E 023°37'0 0.4
2014-Apr-11 08:28N 37°56' E 023°37'1212.8
2014-Apr-11 07:33N 37°48' E 023°27'1 1.0
2014-Apr-11 06:20N 37°48' E 023°29'1012.7
2014-Apr-11 05:33N 37°56' E 023°37'2 1.5
2014-Apr-11 04:32N 37°57' E 023°39'0 0.0
2014-Apr-10 17:33N 37°57' E 023°39'8 8.3
2014-Apr-10 16:33N 37°50' E 023°32'1 0.4
2014-Apr-10 14:33N 37°50' E 023°31'9 6.9
2014-Apr-10 13:14N 37°57' E 023°39'7 9.8
2014-Apr-10 12:33N 37°52' E 023°33'3 1.6
2014-Apr-10 10:23N 37°49' E 023°30'10 9.6
2014-Apr-10 09:20N 37°57' E 023°38'4 4.6
2014-Apr-10 08:33N 37°54' E 023°36'6 2.6
2014-Apr-10 06:19N 37°49' E 023°31'9 9.4
2014-Apr-10 05:18N 37°57' E 023°38'2 0.0
2014-Apr-08 16:33N 37°56' E 023°37'8 3.5
2014-Apr-08 14:17N 37°50' E 023°31'5 2.8
2014-Apr-08 12:33N 37°53' E 023°35'5 2.2
2014-Apr-08 10:20N 37°50' E 023°31'8 4.5
2014-Apr-08 08:33N 37°56' E 023°37'11 5.4
2014-Apr-08 06:27N 37°47' E 023°27'1112.7
2014-Apr-08 05:33N 37°56' E 023°37'2 1.6
2014-Apr-08 04:33N 37°57' E 023°38'3 0.3
2014-Apr-07 16:33N 37°55' E 023°36'  

Dump ship's entire track history

sailing weather and tide predictions

Ag Nektarios Aiginas — SX7083 — position and weather